Time;durP1;ratioP1;P1;durP2;ratioP2;P2;SDS_P1;SDS_P2;PMS_P1;PMS_P2;Temp;Humidity;BMP_temperature;BMP_pressure;BME280_temperature;BME280_humidity;BME280_pressure;Samples;Min_cycle;Max_cycle;Signal;HPM_P1;HPM_P2
2023/05/05 00:00:50;;;;;;;8.77;7.80;;;12.00;95.40;;;;;;5062967;28;20429;-61
2023/05/05 00:03:17;;;;;;;8.83;7.70;;;12.00;95.50;;;;;;5066359;28;20171;-61
2023/05/05 00:05:42;;;;;;;11.93;7.50;;;12.00;96.20;;;;;;5058754;28;20549;-61
2023/05/05 00:08:08;;;;;;;14.83;7.77;;;12.00;96.40;;;;;;5060884;28;20927;-61
2023/05/05 00:10:34;;;;;;;8.90;7.87;;;11.90;96.70;;;;;;5060728;28;20171;-61
2023/05/05 00:13:00;;;;;;;8.00;7.00;;;11.90;96.80;;;;;;5062565;28;20541;-61
2023/05/05 00:15:26;;;;;;;8.43;7.10;;;11.90;97.00;;;;;;5063080;28;20206;-61
2023/05/05 00:17:51;;;;;;;9.07;6.93;;;11.90;97.30;;;;;;5055211;28;20441;-61
2023/05/05 00:20:17;;;;;;;8.60;7.00;;;11.90;97.30;;;;;;5060753;28;20433;-61
2023/05/05 00:22:43;;;;;;;11.33;6.80;;;11.80;97.10;;;;;;5065601;28;20178;-62
2023/05/05 00:25:09;;;;;;;8.60;6.67;;;11.80;97.40;;;;;;5061135;28;20221;-62
2023/05/05 00:27:34;;;;;;;12.33;8.00;;;11.80;98.10;;;;;;5060389;28;20179;-62
2023/05/05 00:30:00;;;;;;;9.17;7.40;;;11.80;98.80;;;;;;5062750;28;20253;-62
2023/05/05 00:32:26;;;;;;;12.90;7.83;;;11.80;98.60;;;;;;5066894;28;20206;-61
2023/05/05 00:34:52;;;;;;;9.07;6.90;;;11.80;98.40;;;;;;5058354;28;20685;-62
2023/05/05 00:37:18;;;;;;;8.77;7.70;;;11.80;98.60;;;;;;5066465;28;20265;-62
2023/05/05 00:39:44;;;;;;;12.70;7.27;;;11.80;98.70;;;;;;5057282;28;20954;-62
2023/05/05 00:42:09;;;;;;;16.13;8.00;;;11.70;99.10;;;;;;5064840;28;20183;-62
2023/05/05 00:44:38;;;;;;;9.80;7.10;;;11.70;99.50;;;;;;5065540;28;20210;-62
2023/05/05 00:47:04;;;;;;;8.20;7.17;;;11.70;99.90;;;;;;5061292;28;20178;-62
2023/05/05 00:49:30;;;;;;;8.40;6.80;;;11.70;99.30;;;;;;5057995;28;20973;-62
2023/05/05 00:51:56;;;;;;;8.70;7.40;;;11.70;99.10;;;;;;5071099;28;20421;-62
2023/05/05 00:54:22;;;;;;;9.83;7.80;;;11.70;99.60;;;;;;5068760;28;20507;-61
2023/05/05 00:56:49;;;;;;;8.90;7.00;;;11.60;99.10;;;;;;5060232;28;20205;-62
2023/05/05 00:59:16;;;;;;;8.30;7.33;;;11.60;99.90;;;;;;5059159;28;20524;-62
2023/05/05 01:01:42;;;;;;;8.47;7.57;;;11.60;99.90;;;;;;5064719;28;20436;-62
2023/05/05 01:04:07;;;;;;;11.10;7.50;;;11.60;99.90;;;;;;5065488;28;20435;-61
2023/05/05 01:06:58;;;;;;;13.57;6.60;;;11.60;99.90;;;;;;5063358;28;21042;-61
2023/05/05 01:09:29;;;;;;;9.30;7.27;;;11.50;99.90;;;;;;5062387;28;20582;-61
2023/05/05 01:12:09;;;;;;;12.60;7.10;;;11.50;99.90;;;;;;5063413;28;20579;-61
2023/05/05 01:14:42;;;;;;;9.50;7.80;;;11.50;99.90;;;;;;5060134;28;20855;-60
2023/05/05 01:17:19;;;;;;;9.23;7.10;;;11.50;99.90;;;;;;5068113;28;20416;-61
2023/05/05 01:20:09;;;;;;;10.30;7.67;;;11.50;99.90;;;;;;5064605;28;20439;-61
2023/05/05 01:22:41;;;;;;;7.90;6.60;;;11.40;99.90;;;;;;5060988;28;20507;-61
2023/05/05 01:25:19;;;;;;;9.43;7.10;;;11.40;99.90;;;;;;5067462;28;20463;-61
2023/05/05 01:28:23;;;;;;;7.30;6.60;;;11.40;99.90;;;;;;5063822;28;20932;-61
2023/05/05 01:31:10;;;;;;;10.03;7.00;;;11.40;99.90;;;;;;5059575;28;20424;-62
2023/05/05 01:33:51;;;;;;;11.70;7.07;;;11.40;99.90;;;;;;5057745;28;20422;-62
2023/05/05 01:36:24;;;;;;;10.77;6.97;;;11.40;99.90;;;;;;5055840;28;20456;-62
2023/05/05 01:38:59;;;;;;;13.30;7.40;;;11.40;99.90;;;;;;5062123;28;20439;-62
2023/05/05 01:41:30;;;;;;;10.20;7.37;;;11.40;99.90;;;;;;5066206;28;20954;-62
2023/05/05 01:44:00;;;;;;;9.10;7.40;;;11.40;99.90;;;;;;5059489;28;20444;-62
2023/05/05 01:46:26;;;;;;;12.03;7.70;;;11.40;99.90;;;;;;5066918;28;20503;-62
2023/05/05 01:48:53;;;;;;;8.47;6.97;;;11.40;99.90;;;;;;5062619;28;20440;-61
2023/05/05 01:51:22;;;;;;;14.57;7.37;;;11.40;99.90;;;;;;5064496;28;20944;-61
2023/05/05 01:53:50;;;;;;;7.90;6.97;;;11.40;99.90;;;;;;5061034;28;20429;-61
2023/05/05 01:56:17;;;;;;;9.80;7.53;;;11.40;99.90;;;;;;5040655;28;20456;-61
2023/05/05 01:58:45;;;;;;;10.37;8.03;;;11.30;99.90;;;;;;5057327;28;20435;-61
2023/05/05 02:01:12;;;;;;;10.77;7.40;;;11.30;99.90;;;;;;5064364;28;20462;-61
2023/05/05 02:03:38;;;;;;;10.17;7.03;;;11.30;99.90;;;;;;5066144;28;20479;-61
2023/05/05 02:06:07;;;;;;;8.73;7.50;;;11.20;99.90;;;;;;5068649;28;20569;-61
2023/05/05 02:08:34;;;;;;;15.73;7.20;;;11.20;99.90;;;;;;5055448;28;20811;-61
2023/05/05 02:11:00;;;;;;;8.03;6.90;;;11.10;99.90;;;;;;5066195;28;20428;-61
2023/05/05 02:13:28;;;;;;;10.07;7.17;;;11.10;99.90;;;;;;5067776;28;20427;-62
2023/05/05 02:15:55;;;;;;;9.73;6.90;;;11.10;99.90;;;;;;5068010;28;20460;-62
2023/05/05 02:18:22;;;;;;;10.47;7.67;;;11.00;99.90;;;;;;5063070;28;20523;-62
2023/05/05 02:20:48;;;;;;;11.57;8.10;;;11.00;99.90;;;;;;5063746;28;20424;-61
2023/05/05 02:23:14;;;;;;;8.80;7.90;;;10.90;99.90;;;;;;5068024;28;20435;-62
2023/05/05 02:25:42;;;;;;;9.30;7.20;;;10.90;99.90;;;;;;5064203;28;20683;-62
2023/05/05 02:28:15;;;;;;;9.50;7.00;;;10.90;99.90;;;;;;5063928;28;20171;-61
2023/05/05 02:30:42;;;;;;;9.30;7.60;;;10.90;99.90;;;;;;5064719;28;20433;-60
2023/05/05 02:33:10;;;;;;;10.63;8.00;;;10.90;99.90;;;;;;5047375;28;20516;-62
2023/05/05 02:35:39;;;;;;;9.50;7.90;;;10.90;99.90;;;;;;5061456;28;20544;-61
2023/05/05 02:38:16;;;;;;;9.13;7.73;;;10.90;99.90;;;;;;5062700;28;20523;-61
2023/05/05 02:40:43;;;;;;;8.30;6.43;;;10.90;99.90;;;;;;5062772;28;20440;-62
2023/05/05 02:43:14;;;;;;;7.40;6.60;;;10.80;99.90;;;;;;5059396;28;20471;-62
2023/05/05 02:45:39;;;;;;;8.73;7.37;;;10.80;99.90;;;;;;5061671;28;20460;-62
2023/05/05 02:48:05;;;;;;;8.90;7.43;;;10.80;99.90;;;;;;5063535;28;21024;-62
2023/05/05 02:50:31;;;;;;;10.20;7.13;;;10.80;99.90;;;;;;5067532;28;20236;-62
2023/05/05 02:52:59;;;;;;;9.87;6.90;;;10.80;99.90;;;;;;5055598;28;20561;-61
2023/05/05 02:55:42;;;;;;;8.33;7.33;;;10.80;99.90;;;;;;5062225;28;21319;-62
2023/05/05 02:58:21;;;;;;;11.50;7.77;;;10.80;99.90;;;;;;5066154;28;20424;-62
2023/05/05 03:00:54;;;;;;;10.60;7.50;;;10.80;99.90;;;;;;5059327;28;21042;-62
2023/05/05 03:03:40;;;;;;;9.33;7.57;;;10.80;99.90;;;;;;5062709;28;20425;-62
2023/05/05 03:06:09;;;;;;;10.60;8.40;;;10.80;99.90;;;;;;5053263;28;20547;-61
2023/05/05 03:08:50;;;;;;;9.33;8.13;;;10.80;99.90;;;;;;5053019;28;20425;-61
2023/05/05 03:11:33;;;;;;;13.07;8.57;;;10.70;99.90;;;;;;5060680;28;20433;-61
2023/05/05 03:14:11;;;;;;;10.70;7.20;;;10.80;99.90;;;;;;5059285;28;20444;-61
2023/05/05 03:16:38;;;;;;;10.83;7.70;;;10.80;99.90;;;;;;5054581;28;20440;-61
2023/05/05 03:19:06;;;;;;;11.80;7.63;;;10.80;99.90;;;;;;5054228;28;20436;-62
2023/05/05 03:21:32;;;;;;;15.93;7.40;;;10.90;99.90;;;;;;5039341;28;20432;-62
2023/05/05 03:23:58;;;;;;;12.63;7.90;;;10.90;99.90;;;;;;5060994;28;20443;-61
2023/05/05 03:26:24;;;;;;;15.17;8.53;;;10.90;99.90;;;;;;5057047;28;20460;-62
2023/05/05 03:28:50;;;;;;;11.53;7.47;;;10.90;99.90;;;;;;5053477;28;20571;-62
2023/05/05 03:31:16;;;;;;;8.80;7.47;;;10.90;99.90;;;;;;5057861;28;20174;-62
2023/05/05 03:33:42;;;;;;;12.47;8.13;;;10.90;99.90;;;;;;5063349;28;20441;-62
2023/05/05 03:36:08;;;;;;;9.83;7.60;;;10.80;99.90;;;;;;5065458;28;20475;-61
2023/05/05 03:38:33;;;;;;;9.27;7.60;;;10.80;99.90;;;;;;5062415;28;20225;-61
2023/05/05 03:41:02;;;;;;;19.27;7.63;;;10.80;99.90;;;;;;5056716;28;20182;-62
2023/05/05 03:43:28;;;;;;;13.27;8.43;;;10.80;99.90;;;;;;5039789;28;20199;-62
2023/05/05 03:45:53;;;;;;;10.83;9.10;;;10.80;99.90;;;;;;5059579;28;20537;-61
2023/05/05 03:48:19;;;;;;;14.07;8.10;;;10.80;99.90;;;;;;5060167;28;20189;-61
2023/05/05 03:50:45;;;;;;;9.70;7.60;;;10.80;99.90;;;;;;5062279;28;20189;-62
2023/05/05 03:53:10;;;;;;;9.90;7.80;;;10.80;99.90;;;;;;5041945;28;20178;-61
2023/05/05 03:55:36;;;;;;;12.40;8.77;;;10.80;99.90;;;;;;5058791;28;20204;-61
2023/05/05 03:58:02;;;;;;;10.90;8.13;;;10.80;99.90;;;;;;5059583;28;20178;-61
2023/05/05 04:00:27;;;;;;;14.30;8.80;;;10.80;99.90;;;;;;5054933;28;20186;-61
2023/05/05 04:02:53;;;;;;;13.07;7.83;;;10.80;99.90;;;;;;5059697;28;20202;-61
2023/05/05 04:05:19;;;;;;;11.67;8.23;;;10.80;99.90;;;;;;5049586;28;20214;-60
2023/05/05 04:07:45;;;;;;;10.23;7.90;;;10.80;99.90;;;;;;5048515;28;20177;-60
2023/05/05 04:10:11;;;;;;;11.20;6.90;;;10.80;99.90;;;;;;5050766;28;20887;-60
2023/05/05 04:12:36;;;;;;;9.20;7.87;;;10.80;99.90;;;;;;5051382;28;20171;-60
2023/05/05 04:15:02;;;;;;;11.07;8.17;;;10.80;99.90;;;;;;5050449;28;20456;-61
2023/05/05 04:17:28;;;;;;;10.57;8.17;;;10.80;99.90;;;;;;5057913;28;20183;-60
2023/05/05 04:19:54;;;;;;;8.80;7.90;;;10.80;99.90;;;;;;5056361;28;20178;-60
2023/05/05 04:22:19;;;;;;;8.47;7.00;;;10.80;99.90;;;;;;5043438;28;20213;-60
2023/05/05 04:24:46;;;;;;;10.50;7.50;;;10.80;99.90;;;;;;5059517;28;20577;-61
2023/05/05 04:27:11;;;;;;;9.40;7.67;;;10.90;99.90;;;;;;5061766;28;20194;-63
2023/05/05 04:29:37;;;;;;;9.90;8.40;;;10.90;99.90;;;;;;5045219;28;20988;-62
2023/05/05 04:32:02;;;;;;;13.20;8.03;;;10.90;99.90;;;;;;5062260;28;20182;-61
2023/05/05 04:34:28;;;;;;;16.03;8.57;;;10.90;99.90;;;;;;5047906;28;20808;-62
2023/05/05 04:36:53;;;;;;;12.30;7.73;;;10.90;99.90;;;;;;5055673;28;20573;-63
2023/05/05 04:39:19;;;;;;;10.23;7.50;;;10.90;99.90;;;;;;5054139;28;20194;-63
2023/05/05 04:41:45;;;;;;;11.33;7.93;;;10.90;99.90;;;;;;5060746;28;20209;-62
2023/05/05 04:44:10;;;;;;;17.33;8.10;;;10.90;99.90;;;;;;5048235;28;20554;-61
2023/05/05 04:46:36;;;;;;;9.90;7.23;;;10.90;99.90;;;;;;5062157;28;20210;-62
2023/05/05 04:49:03;;;;;;;8.00;7.20;;;10.90;99.90;;;;;;5062205;28;20186;-63
2023/05/05 04:51:30;;;;;;;9.73;7.67;;;11.00;99.90;;;;;;5061282;28;20231;-60
2023/05/05 04:53:56;;;;;;;10.30;7.80;;;11.00;99.90;;;;;;5063760;28;20423;-61
2023/05/05 04:56:22;;;;;;;13.37;7.07;;;11.00;99.90;;;;;;5058775;28;20449;-61
2023/05/05 04:58:49;;;;;;;11.63;8.30;;;11.00;99.90;;;;;;5058407;28;20959;-60
2023/05/05 05:01:14;;;;;;;10.43;8.30;;;11.00;99.90;;;;;;5062620;28;20182;-61
2023/05/05 05:03:40;;;;;;;11.80;8.30;;;11.00;99.90;;;;;;5058140;28;20438;-62
2023/05/05 05:06:06;;;;;;;13.40;7.70;;;11.00;99.90;;;;;;5065167;28;20195;-61
2023/05/05 05:08:32;;;;;;;16.17;8.03;;;11.00;99.90;;;;;;5063243;28;20844;-61
2023/05/05 05:10:58;;;;;;;16.57;7.80;;;11.10;99.90;;;;;;5063721;28;20195;-61
2023/05/05 05:13:24;;;;;;;13.93;8.27;;;11.10;99.90;;;;;;5042863;28;20274;-62
2023/05/05 05:15:50;;;;;;;11.20;8.20;;;11.10;99.90;;;;;;5057853;28;20463;-61
2023/05/05 05:18:16;;;;;;;12.40;10.00;;;11.10;99.90;;;;;;5066502;28;20425;-62
2023/05/05 05:20:41;;;;;;;10.40;8.60;;;11.20;99.90;;;;;;5061171;28;20566;-61
2023/05/05 05:23:07;;;;;;;12.13;8.53;;;11.30;99.90;;;;;;5067889;28;20250;-61
2023/05/05 05:25:32;;;;;;;11.17;7.57;;;11.30;99.90;;;;;;5063017;28;20202;-61
2023/05/05 05:27:58;;;;;;;10.27;8.20;;;11.30;99.90;;;;;;5047141;28;20273;-62
2023/05/05 05:30:24;;;;;;;11.70;8.67;;;11.30;99.90;;;;;;5047103;28;21233;-61
2023/05/05 05:32:49;;;;;;;10.60;8.93;;;11.40;99.90;;;;;;5066592;28;20240;-62
2023/05/05 05:35:15;;;;;;;21.83;8.60;;;11.40;99.90;;;;;;5056704;28;20268;-61
2023/05/05 05:37:40;;;;;;;12.23;8.37;;;11.40;99.90;;;;;;5065610;28;20175;-61
2023/05/05 05:40:07;;;;;;;11.53;9.07;;;11.30;99.90;;;;;;5038752;28;20600;-61
2023/05/05 05:42:32;;;;;;;12.10;8.90;;;11.40;99.90;;;;;;5050825;28;20678;-61
2023/05/05 05:44:58;;;;;;;11.20;9.30;;;11.40;99.90;;;;;;5045019;28;20479;-62
2023/05/05 05:47:24;;;;;;;26.00;9.90;;;11.40;99.90;;;;;;5065250;28;20668;-61
2023/05/05 05:49:49;;;;;;;15.70;11.00;;;11.50;99.90;;;;;;5064894;28;20175;-63
2023/05/05 05:52:15;;;;;;;11.00;8.50;;;11.50;99.90;;;;;;5063238;28;20795;-61
2023/05/05 05:54:41;;;;;;;13.27;10.33;;;11.60;99.90;;;;;;5059734;28;20620;-62
2023/05/05 05:57:06;;;;;;;13.53;8.50;;;11.60;99.90;;;;;;5063856;28;20185;-62
2023/05/05 05:59:32;;;;;;;11.63;8.53;;;11.70;99.90;;;;;;5063873;28;20205;-62
2023/05/05 06:01:57;;;;;;;13.37;8.40;;;11.70;99.90;;;;;;5062423;28;20166;-62
2023/05/05 06:04:23;;;;;;;12.13;8.80;;;11.80;99.90;;;;;;5065942;28;20611;-62
2023/05/05 06:06:49;;;;;;;10.43;8.83;;;11.70;99.90;;;;;;5067621;28;20202;-62
2023/05/05 06:09:14;;;;;;;10.97;7.87;;;11.80;99.90;;;;;;5046066;28;20610;-62
2023/05/05 06:11:40;;;;;;;17.40;9.23;;;11.80;99.90;;;;;;5061682;28;20178;-62
2023/05/05 06:14:05;;;;;;;14.80;8.10;;;11.80;99.90;;;;;;5064626;28;20257;-62
2023/05/05 06:16:31;;;;;;;12.10;8.03;;;11.80;99.90;;;;;;5046572;28;20194;-62
2023/05/05 06:18:57;;;;;;;14.67;9.33;;;11.90;99.90;;;;;;5064085;28;20592;-61
2023/05/05 06:21:22;;;;;;;16.33;9.00;;;11.90;99.90;;;;;;5064237;28;20711;-62
2023/05/05 06:23:48;;;;;;;17.63;9.37;;;11.90;99.90;;;;;;5067375;28;20182;-62
2023/05/05 06:26:14;;;;;;;15.00;8.93;;;12.00;99.90;;;;;;5059484;28;20214;-62
2023/05/05 06:28:40;;;;;;;11.83;9.40;;;12.00;99.90;;;;;;5062591;28;20175;-61
2023/05/05 06:31:06;;;;;;;11.83;9.30;;;12.10;99.90;;;;;;5036007;28;20171;-61
2023/05/05 06:33:32;;;;;;;11.00;9.10;;;12.20;99.90;;;;;;5060563;28;20429;-62
2023/05/05 06:35:57;;;;;;;13.17;10.03;;;12.20;99.90;;;;;;5061151;28;20300;-61
2023/05/05 06:38:23;;;;;;;12.57;9.57;;;12.30;99.90;;;;;;5063443;28;20189;-61
2023/05/05 06:40:49;;;;;;;15.83;9.80;;;12.50;99.90;;;;;;5060876;28;20187;-62
2023/05/05 06:43:15;;;;;;;14.90;10.87;;;12.50;99.90;;;;;;5058855;28;20182;-62
2023/05/05 06:45:41;;;;;;;11.93;10.50;;;12.50;99.90;;;;;;5065739;28;20221;-61
2023/05/05 06:48:07;;;;;;;17.60;12.40;;;12.50;99.90;;;;;;5063111;28;21433;-61
2023/05/05 06:50:32;;;;;;;23.30;12.80;;;12.60;99.90;;;;;;5039862;28;20511;-62
2023/05/05 06:52:58;;;;;;;24.70;12.93;;;12.60;99.90;;;;;;5049321;28;20498;-60
2023/05/05 06:55:24;;;;;;;16.50;12.13;;;12.60;99.90;;;;;;5065796;28;20202;-61
2023/05/05 06:57:49;;;;;;;17.27;10.47;;;12.70;99.90;;;;;;5064369;28;20669;-61
2023/05/05 07:00:16;;;;;;;17.10;9.97;;;12.80;99.90;;;;;;5056121;28;20199;-62
2023/05/05 07:02:42;;;;;;;15.87;10.93;;;12.80;99.90;;;;;;5067376;28;20650;-62
2023/05/05 07:05:08;;;;;;;19.93;11.93;;;12.90;99.90;;;;;;5056546;28;20473;-61
2023/05/05 07:07:34;;;;;;;19.60;12.30;;;12.90;99.90;;;;;;5058739;28;20178;-64
2023/05/05 07:10:00;;;;;;;19.70;12.50;;;13.00;99.90;;;;;;5063359;28;20436;-63
2023/05/05 07:12:32;;;;;;;21.03;12.53;;;13.10;99.90;;;;;;5060772;28;20429;-64
2023/05/05 07:14:57;;;;;;;17.23;12.10;;;13.10;99.90;;;;;;5058749;28;20226;-65
2023/05/05 07:17:23;;;;;;;15.50;11.77;;;13.20;99.90;;;;;;5061886;28;20464;-63
2023/05/05 07:19:50;;;;;;;25.47;12.17;;;13.20;99.90;;;;;;5064624;28;20178;-63
2023/05/05 07:22:15;;;;;;;17.47;12.57;;;13.30;99.90;;;;;;5064136;28;20546;-64
2023/05/05 07:24:41;;;;;;;25.87;13.53;;;13.30;99.90;;;;;;5059714;28;20475;-63
2023/05/05 07:27:06;;;;;;;24.50;14.10;;;13.30;99.90;;;;;;5062404;28;20259;-63
2023/05/05 07:29:32;;;;;;;21.80;13.30;;;13.40;99.90;;;;;;5055258;28;20185;-62
2023/05/05 07:31:58;;;;;;;17.80;12.47;;;13.40;99.90;;;;;;5062602;28;20177;-62
2023/05/05 07:34:23;;;;;;;17.00;13.27;;;13.50;99.90;;;;;;5061141;28;20545;-63
2023/05/05 07:36:49;;;;;;;17.57;12.57;;;13.60;99.90;;;;;;5061994;28;20190;-66
2023/05/05 07:39:14;;;;;;;21.80;13.13;;;13.60;99.90;;;;;;5059476;28;20186;-63
2023/05/05 07:41:41;;;;;;;24.30;14.07;;;13.70;99.90;;;;;;5057728;28;20214;-62
2023/05/05 07:44:07;;;;;;;19.30;14.13;;;13.80;99.90;;;;;;5065443;28;20189;-63
2023/05/05 07:46:33;;;;;;;22.53;15.07;;;13.90;99.90;;;;;;5061558;28;20634;-64
2023/05/05 07:48:58;;;;;;;23.67;14.13;;;14.00;99.90;;;;;;5061657;28;20436;-64
2023/05/05 07:51:25;;;;;;;20.93;13.07;;;14.20;99.90;;;;;;5061898;28;20182;-64
2023/05/05 07:53:50;;;;;;;18.30;13.00;;;14.40;99.90;;;;;;5062426;28;20769;-63
2023/05/05 07:56:16;;;;;;;19.70;14.50;;;14.50;99.90;;;;;;5059216;28;20460;-64
2023/05/05 07:58:42;;;;;;;23.67;15.00;;;14.70;99.90;;;;;;5059765;28;20217;-63
2023/05/05 08:01:09;;;;;;;17.47;13.73;;;14.80;99.90;;;;;;5054467;28;20268;-64
2023/05/05 08:03:35;;;;;;;18.60;11.90;;;14.90;99.90;;;;;;5064947;28;20182;-64
2023/05/05 08:06:08;;;;;;;19.83;10.67;;;14.90;99.90;;;;;;5059773;28;20463;-65
2023/05/05 08:08:34;;;;;;;14.83;9.73;;;15.10;99.90;;;;;;5057198;28;20178;-62
2023/05/05 08:11:00;;;;;;;12.70;8.20;;;15.20;99.90;;;;;;5066285;28;20450;-62
2023/05/05 08:13:27;;;;;;;13.87;8.70;;;15.30;99.90;;;;;;5060462;28;20185;-65
2023/05/05 08:15:52;;;;;;;11.70;8.33;;;15.40;99.90;;;;;;5035659;28;20225;-63
2023/05/05 08:18:18;;;;;;;12.23;7.50;;;15.50;99.90;;;;;;5061606;28;20438;-63
2023/05/05 08:20:44;;;;;;;9.27;7.00;;;15.60;99.90;;;;;;5059948;28;20249;-62
2023/05/05 08:23:09;;;;;;;12.97;7.13;;;15.70;99.90;;;;;;5053513;28;20825;-64
2023/05/05 08:25:35;;;;;;;12.27;7.20;;;15.70;99.60;;;;;;5060267;28;20220;-62
2023/05/05 08:28:01;;;;;;;9.97;6.53;;;15.70;97.60;;;;;;5061676;28;20676;-63
2023/05/05 08:30:26;;;;;;;10.77;6.23;;;15.80;96.50;;;;;;5057138;28;20224;-63
2023/05/05 08:32:52;;;;;;;8.43;5.10;;;15.80;97.10;;;;;;5063415;28;20182;-66
2023/05/05 08:35:18;;;;;;;10.17;5.63;;;15.80;97.80;;;;;;5062915;28;20718;-63
2023/05/05 08:37:43;;;;;;;7.67;5.00;;;15.90;98.00;;;;;;5060735;28;20888;-63
2023/05/05 08:40:13;;;;;;;6.57;4.20;;;15.90;97.40;;;;;;5060889;28;20595;-63
2023/05/05 08:42:39;;;;;;;5.70;4.60;;;15.90;98.30;;;;;;5044386;28;20186;-65
2023/05/05 08:45:09;;;;;;;9.63;5.27;;;15.90;98.00;;;;;;5039637;28;20945;-64
2023/05/05 08:47:36;;;;;;;6.60;4.60;;;15.90;97.30;;;;;;5062755;28;20425;-66
2023/05/05 08:50:04;;;;;;;7.57;5.00;;;15.90;95.50;;;;;;5063382;28;20566;-63
2023/05/05 08:52:39;;;;;;;9.67;4.50;;;16.00;95.10;;;;;;5050343;28;20416;-62
2023/05/05 08:55:22;;;;;;;9.30;4.97;;;16.00;95.30;;;;;;5052987;28;20589;-64
2023/05/05 08:57:56;;;;;;;18.37;5.10;;;16.10;96.30;;;;;;5061473;28;20440;-62
2023/05/05 09:00:23;;;;;;;7.27;5.20;;;16.20;97.50;;;;;;5061504;28;20901;-65
2023/05/05 09:02:49;;;;;;;6.17;4.80;;;16.40;98.30;;;;;;5047088;28;20844;-63
2023/05/05 09:05:15;;;;;;;7.17;5.37;;;16.50;99.40;;;;;;5049497;28;20499;-63
2023/05/05 09:07:42;;;;;;;7.03;4.40;;;16.60;99.90;;;;;;5059392;28;20649;-63
2023/05/05 09:10:10;;;;;;;5.60;4.03;;;16.70;97.70;;;;;;5059332;28;20424;-64
2023/05/05 09:12:39;;;;;;;5.47;4.20;;;16.80;90.50;;;;;;5056210;28;20964;-65
2023/05/05 09:15:06;;;;;;;6.57;4.50;;;16.90;87.20;;;;;;5058320;28;20456;-64
2023/05/05 09:17:31;;;;;;;8.00;4.60;;;17.00;90.90;;;;;;5066256;28;20446;-63
2023/05/05 09:20:10;;;;;;;4.83;4.13;;;17.20;90.10;;;;;;5067282;28;20424;-63
2023/05/05 09:22:43;;;;;;;5.00;3.73;;;17.40;89.00;;;;;;5067708;28;20199;-63
2023/05/05 09:25:11;;;;;;;5.53;3.73;;;17.70;90.20;;;;;;5063947;28;20471;-61
2023/05/05 09:27:39;;;;;;;9.50;4.20;;;18.00;85.00;;;;;;5066929;28;20792;-65
2023/05/05 09:30:06;;;;;;;9.77;4.27;;;18.20;81.50;;;;;;5045592;28;20437;-63
2023/05/05 09:32:52;;;;;;;3.87;3.30;;;18.40;82.70;;;;;;5060223;28;20433;-62
2023/05/05 09:35:21;;;;;;;4.30;3.70;;;18.60;81.30;;;;;;5061748;28;20555;-64
2023/05/05 09:37:46;;;;;;;5.30;4.03;;;18.70;79.50;;;;;;5062525;28;20433;-64
2023/05/05 09:40:14;;;;;;;6.70;3.80;;;18.70;76.20;;;;;;5062288;28;20436;-62
2023/05/05 09:42:40;;;;;;;7.07;4.70;;;18.70;72.90;;;;;;5064604;28;20227;-62
2023/05/05 09:45:25;;;;;;;8.77;4.00;;;18.70;73.10;;;;;;5060648;28;20537;-61
2023/05/05 09:47:51;;;;;;;5.03;3.10;;;18.80;73.90;;;;;;5059411;28;20428;-62
2023/05/05 09:50:17;;;;;;;4.10;3.50;;;18.90;72.40;;;;;;5061614;28;20455;-61
2023/05/05 09:52:55;;;;;;;5.27;3.50;;;19.10;72.60;;;;;;5062916;28;20823;-62
2023/05/05 09:55:22;;;;;;;2.57;2.37;;;19.20;70.00;;;;;;5060564;28;20452;-62
2023/05/05 09:57:47;;;;;;;5.13;3.30;;;19.30;67.40;;;;;;5059831;28;20451;-61
2023/05/05 10:00:13;;;;;;;5.10;3.00;;;19.40;65.50;;;;;;5061087;28;20433;-62
2023/05/05 10:02:39;;;;;;;3.30;3.00;;;19.40;65.90;;;;;;5058744;28;20182;-61
2023/05/05 10:05:08;;;;;;;5.77;2.90;;;19.60;66.10;;;;;;5063796;28;20483;-62
2023/05/05 10:07:35;;;;;;;4.40;3.27;;;19.70;66.00;;;;;;5061689;28;20528;-63
2023/05/05 10:10:02;;;;;;;5.73;3.10;;;19.70;63.90;;;;;;5065403;28;20524;-61
2023/05/05 10:12:30;;;;;;;7.53;2.93;;;19.70;62.20;;;;;;5060690;28;20421;-61
2023/05/05 10:14:56;;;;;;;2.87;2.67;;;19.80;63.30;;;;;;5057085;28;21238;-61
2023/05/05 10:17:23;;;;;;;9.00;3.57;;;20.00;63.00;;;;;;5041513;28;20486;-62
2023/05/05 10:19:51;;;;;;;8.80;3.10;;;20.10;61.20;;;;;;5054383;28;20792;-61
2023/05/05 10:22:21;;;;;;;5.70;3.20;;;20.20;61.50;;;;;;5059090;28;20421;-64
2023/05/05 10:24:56;;;;;;;3.70;3.00;;;20.40;61.90;;;;;;5060965;28;20495;-61
2023/05/05 10:27:23;;;;;;;3.00;2.53;;;20.60;61.70;;;;;;5055408;28;20475;-62
2023/05/05 10:30:04;;;;;;;3.40;2.60;;;20.70;60.50;;;;;;5058182;28;20591;-62
2023/05/05 10:32:43;;;;;;;3.83;2.77;;;20.80;59.50;;;;;;5056159;28;20587;-61
2023/05/05 10:35:10;;;;;;;4.53;2.70;;;20.80;59.20;;;;;;5059743;28;20466;-63
2023/05/05 10:37:40;;;;;;;4.33;2.50;;;20.90;58.50;;;;;;5057485;28;20427;-62
2023/05/05 10:40:09;;;;;;;3.87;2.80;;;20.90;57.30;;;;;;5062612;28;20429;-62
2023/05/05 10:42:38;;;;;;;4.50;2.87;;;21.00;57.00;;;;;;5066048;28;20429;-62
2023/05/05 10:45:06;;;;;;;3.90;2.70;;;21.10;57.60;;;;;;5061810;28;20531;-62
2023/05/05 10:47:34;;;;;;;2.80;2.60;;;21.20;57.00;;;;;;5097133;22;20961;-57
2023/05/05 10:50:06;;;;;;;3.37;2.67;;;21.20;58.10;;;;;;5080703;28;20428;-56
2023/05/05 10:52:39;;;;;;;3.30;2.80;;;21.30;57.80;;;;;;5079401;28;20813;-56
2023/05/05 10:55:30;;;;;;;3.53;2.77;;;21.40;57.90;;;;;;5078364;28;20452;-56
2023/05/05 10:57:56;;;;;;;2.90;2.70;;;21.40;57.20;;;;;;5072371;28;20490;-56
2023/05/05 11:00:37;;;;;;;5.50;3.47;;;21.30;56.80;;;;;;5057617;28;20433;-57
2023/05/05 11:03:32;;;;;;;5.70;3.00;;;21.30;57.30;;;;;;5056583;28;20193;-58
2023/05/05 11:06:03;;;;;;;6.23;3.30;;;21.40;56.00;;;;;;5044558;28;21191;-58
2023/05/05 11:08:30;;;;;;;5.60;3.33;;;21.40;56.00;;;;;;5051581;28;20448;-58
2023/05/05 11:10:55;;;;;;;3.80;3.17;;;21.50;55.50;;;;;;5058957;28;20428;-59
2023/05/05 11:13:21;;;;;;;3.13;2.83;;;21.50;53.70;;;;;;5048076;28;20945;-58
2023/05/05 11:15:49;;;;;;;5.60;2.87;;;21.40;54.50;;;;;;5059417;28;20181;-58
2023/05/05 11:18:37;;;;;;;4.17;2.80;;;21.40;54.30;;;;;;5061191;28;20688;-58
2023/05/05 11:21:14;;;;;;;3.53;3.20;;;21.40;54.10;;;;;;5058421;28;20959;-58
2023/05/05 11:23:50;;;;;;;4.57;3.10;;;21.40;54.10;;;;;;5065874;28;20436;-58
2023/05/05 11:26:18;;;;;;;5.13;3.00;;;21.20;53.60;;;;;;5056511;28;20844;-58
2023/05/05 11:29:03;;;;;;;6.23;2.50;;;21.20;54.60;;;;;;5064364;28;20507;-58
2023/05/05 11:31:31;;;;;;;3.40;3.03;;;21.20;55.40;;;;;;5056447;28;20430;-59
2023/05/05 11:34:24;;;;;;;10.50;2.80;;;21.40;55.80;;;;;;5057762;28;20474;-58
2023/05/05 11:36:52;;;;;;;4.30;3.07;;;21.50;55.60;;;;;;5054479;28;20433;-58
2023/05/05 11:39:25;;;;;;;3.43;3.00;;;21.50;55.80;;;;;;5056630;28;20429;-58
2023/05/05 11:42:12;;;;;;;5.70;2.87;;;21.60;56.50;;;;;;5051740;28;20838;-58
2023/05/05 11:44:38;;;;;;;9.37;2.93;;;21.70;56.40;;;;;;5062947;28;20492;-58
2023/05/05 11:47:03;;;;;;;9.03;2.90;;;21.70;56.00;;;;;;5058075;28;20719;-59
2023/05/05 11:49:32;;;;;;;3.17;2.87;;;21.80;56.10;;;;;;5054379;28;20471;-57
2023/05/05 11:52:01;;;;;;;5.07;3.00;;;21.80;56.20;;;;;;5059843;28;20207;-59
2023/05/05 11:54:27;;;;;;;4.73;2.53;;;21.80;55.80;;;;;;5054631;28;21053;-57
2023/05/05 11:56:55;;;;;;;3.17;2.50;;;21.70;55.60;;;;;;5055348;28;20444;-57
2023/05/05 11:59:21;;;;;;;5.93;3.63;;;21.70;56.10;;;;;;5070381;28;20453;-58
2023/05/05 12:01:47;;;;;;;4.47;2.70;;;21.50;55.90;;;;;;5060209;28;20444;-56
2023/05/05 12:04:14;;;;;;;3.90;3.17;;;21.50;56.50;;;;;;5054504;28;20420;-57
2023/05/05 12:06:40;;;;;;;8.70;2.90;;;21.50;56.60;;;;;;5063450;28;20202;-57
2023/05/05 12:09:13;;;;;;;12.27;3.30;;;21.60;56.70;;;;;;5062019;28;20453;-57
2023/05/05 12:11:56;;;;;;;5.23;2.63;;;21.70;56.70;;;;;;5057274;28;20442;-58
2023/05/05 12:14:23;;;;;;;4.73;2.90;;;21.80;54.70;;;;;;5059888;28;20413;-59
2023/05/05 12:16:55;;;;;;;6.13;3.00;;;22.10;55.90;;;;;;5052971;28;20898;-57
2023/05/05 12:19:22;;;;;;;5.20;2.70;;;22.30;54.10;;;;;;5056848;28;20437;-59
2023/05/05 12:21:48;;;;;;;4.43;2.70;;;22.50;53.80;;;;;;5056994;28;20455;-57
2023/05/05 12:24:13;;;;;;;4.57;2.97;;;22.50;53.90;;;;;;5058943;28;20818;-57
2023/05/05 12:26:40;;;;;;;9.00;3.00;;;22.40;55.20;;;;;;5055013;28;20203;-57
2023/05/05 12:29:06;;;;;;;3.70;2.83;;;22.30;53.80;;;;;;5058048;28;20686;-58
2023/05/05 12:31:41;;;;;;;4.13;2.83;;;22.20;54.10;;;;;;5060045;28;20967;-59
2023/05/05 12:34:09;;;;;;;4.43;2.83;;;21.90;53.70;;;;;;5056073;28;20439;-58
2023/05/05 12:36:35;;;;;;;7.23;3.23;;;21.70;52.20;;;;;;5055662;28;20501;-58
2023/05/05 12:39:03;;;;;;;5.60;2.90;;;21.50;53.10;;;;;;5055127;28;20465;-57
2023/05/05 12:41:33;;;;;;;6.23;3.33;;;21.40;54.10;;;;;;5057907;28;20435;-58
2023/05/05 12:43:59;;;;;;;7.30;3.10;;;21.20;53.50;;;;;;5054782;28;20432;-57
2023/05/05 12:46:26;;;;;;;3.53;3.00;;;21.10;52.70;;;;;;5061942;28;20573;-57